sensor_id;sensor_type;location;lat;lon;timestamp;temperature;humidity
13205;DHT22;6667;52.634;9.226;2023-02-28T00:02:25;-1.40;99.90
13205;DHT22;6667;52.634;9.226;2023-02-28T00:04:51;-1.50;99.90
13205;DHT22;6667;52.634;9.226;2023-02-28T00:07:27;-1.40;99.90
13205;DHT22;6667;52.634;9.226;2023-02-28T00:09:54;-1.40;99.90
13205;DHT22;6667;52.634;9.226;2023-02-28T00:12:21;-1.40;99.90
13205;DHT22;6667;52.634;9.226;2023-02-28T00:14:48;-1.50;99.90
13205;DHT22;6667;52.634;9.226;2023-02-28T00:17:15;-1.60;99.90
13205;DHT22;6667;52.634;9.226;2023-02-28T00:19:43;-1.60;99.90
13205;DHT22;6667;52.634;9.226;2023-02-28T00:22:10;-1.50;99.90
13205;DHT22;6667;52.634;9.226;2023-02-28T00:24:38;-1.60;99.90
13205;DHT22;6667;52.634;9.226;2023-02-28T00:27:04;-1.60;99.90
13205;DHT22;6667;52.634;9.226;2023-02-28T00:29:31;-1.60;99.90
13205;DHT22;6667;52.634;9.226;2023-02-28T00:31:58;-1.60;99.90
13205;DHT22;6667;52.634;9.226;2023-02-28T00:34:24;-1.70;99.90
13205;DHT22;6667;52.634;9.226;2023-02-28T00:36:51;-2.00;99.90
13205;DHT22;6667;52.634;9.226;2023-02-28T00:39:17;-2.00;99.90
13205;DHT22;6667;52.634;9.226;2023-02-28T00:41:45;-2.00;99.90
13205;DHT22;6667;52.634;9.226;2023-02-28T00:44:12;-2.00;99.90
13205;DHT22;6667;52.634;9.226;2023-02-28T00:46:39;-1.90;99.90
13205;DHT22;6667;52.634;9.226;2023-02-28T00:49:05;-1.90;99.90
13205;DHT22;6667;52.634;9.226;2023-02-28T00:51:32;-1.90;99.90
13205;DHT22;6667;52.634;9.226;2023-02-28T00:53:59;-1.90;99.90
13205;DHT22;6667;52.634;9.226;2023-02-28T00:56:25;-1.90;99.90
13205;DHT22;6667;52.634;9.226;2023-02-28T00:58:53;-2.00;99.90
13205;DHT22;6667;52.634;9.226;2023-02-28T01:01:20;-2.00;99.90
13205;DHT22;6667;52.634;9.226;2023-02-28T01:03:47;-2.00;99.90
13205;DHT22;6667;52.634;9.226;2023-02-28T01:06:13;-2.10;99.90
13205;DHT22;6667;52.634;9.226;2023-02-28T01:08:40;-2.00;99.90
13205;DHT22;6667;52.634;9.226;2023-02-28T01:11:08;-2.00;99.90
13205;DHT22;6667;52.634;9.226;2023-02-28T01:13:34;-2.10;99.90
13205;DHT22;6667;52.634;9.226;2023-02-28T01:16:03;-2.20;99.90
13205;DHT22;6667;52.634;9.226;2023-02-28T01:18:29;-2.20;99.90
13205;DHT22;6667;52.634;9.226;2023-02-28T01:20:56;-2.20;99.90
13205;DHT22;6667;52.634;9.226;2023-02-28T01:23:23;-2.20;99.90
13205;DHT22;6667;52.634;9.226;2023-02-28T01:25:50;-2.20;99.90
13205;DHT22;6667;52.634;9.226;2023-02-28T01:28:17;-2.20;99.90
13205;DHT22;6667;52.634;9.226;2023-02-28T01:30:47;-2.20;99.90
13205;DHT22;6667;52.634;9.226;2023-02-28T01:33:15;-2.30;99.90
13205;DHT22;6667;52.634;9.226;2023-02-28T01:35:42;-2.20;99.90
13205;DHT22;6667;52.634;9.226;2023-02-28T01:38:09;-2.20;99.90
13205;DHT22;6667;52.634;9.226;2023-02-28T01:40:35;-2.30;99.90
13205;DHT22;6667;52.634;9.226;2023-02-28T01:43:02;-2.30;99.90
13205;DHT22;6667;52.634;9.226;2023-02-28T01:45:30;-2.30;99.90
13205;DHT22;6667;52.634;9.226;2023-02-28T01:47:59;-2.40;99.90
13205;DHT22;6667;52.634;9.226;2023-02-28T01:50:31;-2.40;99.90
13205;DHT22;6667;52.634;9.226;2023-02-28T01:53:01;-2.40;99.90
13205;DHT22;6667;52.634;9.226;2023-02-28T01:55:31;-2.40;99.90
13205;DHT22;6667;52.634;9.226;2023-02-28T01:58:02;-2.40;99.90
13205;DHT22;6667;52.634;9.226;2023-02-28T02:00:30;-2.50;99.90
13205;DHT22;6667;52.634;9.226;2023-02-28T02:02:59;-2.50;99.90
13205;DHT22;6667;52.634;9.226;2023-02-28T02:05:29;-2.50;99.90
13205;DHT22;6667;52.634;9.226;2023-02-28T02:07:58;-2.50;99.90
13205;DHT22;6667;52.634;9.226;2023-02-28T02:10:31;-2.60;99.90
13205;DHT22;6667;52.634;9.226;2023-02-28T02:13:22;-2.60;99.90
13205;DHT22;6667;52.634;9.226;2023-02-28T02:16:00;-2.70;99.90
13205;DHT22;6667;52.634;9.226;2023-02-28T02:18:33;-2.70;99.90
13205;DHT22;6667;52.634;9.226;2023-02-28T02:21:29;-2.70;99.90
13205;DHT22;6667;52.634;9.226;2023-02-28T02:35:28;-2.80;99.90
13205;DHT22;6667;52.634;9.226;2023-02-28T02:37:59;-2.80;99.90
13205;DHT22;6667;52.634;9.226;2023-02-28T02:40:35;-2.80;99.90
13205;DHT22;6667;52.634;9.226;2023-02-28T02:43:06;-2.90;99.90
13205;DHT22;6667;52.634;9.226;2023-02-28T02:45:37;-2.90;99.90
13205;DHT22;6667;52.634;9.226;2023-02-28T02:48:11;-3.00;99.90
13205;DHT22;6667;52.634;9.226;2023-02-28T02:50:43;-3.00;99.90
13205;DHT22;6667;52.634;9.226;2023-02-28T02:53:14;-3.00;99.90
13205;DHT22;6667;52.634;9.226;2023-02-28T02:55:45;-3.00;99.90
13205;DHT22;6667;52.634;9.226;2023-02-28T02:58:15;-3.10;99.90
13205;DHT22;6667;52.634;9.226;2023-02-28T03:00:46;-3.10;99.90
13205;DHT22;6667;52.634;9.226;2023-02-28T03:03:14;-3.10;99.90
13205;DHT22;6667;52.634;9.226;2023-02-28T03:05:46;-3.10;99.90
13205;DHT22;6667;52.634;9.226;2023-02-28T03:08:14;-3.10;99.90
13205;DHT22;6667;52.634;9.226;2023-02-28T03:10:42;-3.10;99.90
13205;DHT22;6667;52.634;9.226;2023-02-28T03:13:31;-3.20;99.90
13205;DHT22;6667;52.634;9.226;2023-02-28T03:16:28;-3.20;1.00
13205;DHT22;6667;52.634;9.226;2023-02-28T03:19:03;-3.20;99.90
13205;DHT22;6667;52.634;9.226;2023-02-28T03:21:39;-3.20;99.90
13205;DHT22;6667;52.634;9.226;2023-02-28T03:24:10;-3.30;99.90
13205;DHT22;6667;52.634;9.226;2023-02-28T03:26:42;-3.20;99.90
13205;DHT22;6667;52.634;9.226;2023-02-28T03:29:16;-3.30;99.90
13205;DHT22;6667;52.634;9.226;2023-02-28T03:31:48;-3.40;99.90
13205;DHT22;6667;52.634;9.226;2023-02-28T03:34:19;-3.40;99.90
13205;DHT22;6667;52.634;9.226;2023-02-28T03:36:52;-3.40;99.90
13205;DHT22;6667;52.634;9.226;2023-02-28T03:39:22;-3.40;99.90
13205;DHT22;6667;52.634;9.226;2023-02-28T03:41:54;-3.40;99.90
13205;DHT22;6667;52.634;9.226;2023-02-28T03:44:25;-3.40;99.90
13205;DHT22;6667;52.634;9.226;2023-02-28T03:46:58;-3.40;99.90
13205;DHT22;6667;52.634;9.226;2023-02-28T03:49:28;-3.50;99.90
13205;DHT22;6667;52.634;9.226;2023-02-28T03:52:00;-3.50;99.90
13205;DHT22;6667;52.634;9.226;2023-02-28T03:54:30;-3.50;99.90
13205;DHT22;6667;52.634;9.226;2023-02-28T03:57:03;-3.50;99.90
13205;DHT22;6667;52.634;9.226;2023-02-28T03:59:35;-3.50;99.90
13205;DHT22;6667;52.634;9.226;2023-02-28T04:02:04;-3.70;99.90
13205;DHT22;6667;52.634;9.226;2023-02-28T04:04:30;-3.70;99.90
13205;DHT22;6667;52.634;9.226;2023-02-28T04:07:04;-3.70;99.90
13205;DHT22;6667;52.634;9.226;2023-02-28T04:09:31;-3.70;99.90
13205;DHT22;6667;52.634;9.226;2023-02-28T04:11:58;-3.70;99.90
13205;DHT22;6667;52.634;9.226;2023-02-28T04:14:25;-3.70;99.90
13205;DHT22;6667;52.634;9.226;2023-02-28T04:16:51;-3.70;99.90
13205;DHT22;6667;52.634;9.226;2023-02-28T04:19:18;-3.70;99.90
13205;DHT22;6667;52.634;9.226;2023-02-28T04:21:46;-3.90;99.90
13205;DHT22;6667;52.634;9.226;2023-02-28T04:24:17;-3.80;99.90
13205;DHT22;6667;52.634;9.226;2023-02-28T04:26:45;-3.90;99.90
13205;DHT22;6667;52.634;9.226;2023-02-28T04:29:13;-3.90;99.90
13205;DHT22;6667;52.634;9.226;2023-02-28T04:31:40;-3.80;99.90
13205;DHT22;6667;52.634;9.226;2023-02-28T04:34:07;-3.90;99.90
13205;DHT22;6667;52.634;9.226;2023-02-28T04:36:34;-3.80;99.90
13205;DHT22;6667;52.634;9.226;2023-02-28T04:39:01;-4.00;99.90
13205;DHT22;6667;52.634;9.226;2023-02-28T04:41:30;-3.90;99.90
13205;DHT22;6667;52.634;9.226;2023-02-28T04:43:57;-4.00;99.90
13205;DHT22;6667;52.634;9.226;2023-02-28T04:46:23;-4.10;99.90
13205;DHT22;6667;52.634;9.226;2023-02-28T04:48:50;-4.00;99.90
13205;DHT22;6667;52.634;9.226;2023-02-28T04:51:18;-4.00;99.90
13205;DHT22;6667;52.634;9.226;2023-02-28T04:53:45;-4.00;99.90
13205;DHT22;6667;52.634;9.226;2023-02-28T04:56:12;-4.00;99.90
13205;DHT22;6667;52.634;9.226;2023-02-28T04:58:41;-4.00;99.90
13205;DHT22;6667;52.634;9.226;2023-02-28T05:01:17;-4.10;99.90
13205;DHT22;6667;52.634;9.226;2023-02-28T05:03:44;-4.00;99.90
13205;DHT22;6667;52.634;9.226;2023-02-28T05:06:11;-4.00;99.90
13205;DHT22;6667;52.634;9.226;2023-02-28T05:08:39;-4.00;99.90
13205;DHT22;6667;52.634;9.226;2023-02-28T05:11:08;-4.00;99.90
13205;DHT22;6667;52.634;9.226;2023-02-28T05:13:40;-4.00;99.90
13205;DHT22;6667;52.634;9.226;2023-02-28T05:16:07;-4.10;99.90
13205;DHT22;6667;52.634;9.226;2023-02-28T05:18:33;-4.10;99.90
13205;DHT22;6667;52.634;9.226;2023-02-28T05:21:00;-4.10;99.90
13205;DHT22;6667;52.634;9.226;2023-02-28T05:23:27;-4.20;99.90
13205;DHT22;6667;52.634;9.226;2023-02-28T05:25:54;-4.20;99.90
13205;DHT22;6667;52.634;9.226;2023-02-28T05:28:21;-4.20;99.90
13205;DHT22;6667;52.634;9.226;2023-02-28T05:30:49;-4.20;99.90
13205;DHT22;6667;52.634;9.226;2023-02-28T05:33:15;-4.20;99.90
13205;DHT22;6667;52.634;9.226;2023-02-28T05:35:42;-4.20;99.90
13205;DHT22;6667;52.634;9.226;2023-02-28T05:38:09;-4.20;99.90
13205;DHT22;6667;52.634;9.226;2023-02-28T05:40:38;-4.20;99.90
13205;DHT22;6667;52.634;9.226;2023-02-28T05:43:05;-4.30;99.90
13205;DHT22;6667;52.634;9.226;2023-02-28T05:45:32;-4.30;99.90
13205;DHT22;6667;52.634;9.226;2023-02-28T05:48:00;-4.30;99.90
13205;DHT22;6667;52.634;9.226;2023-02-28T05:50:26;-4.30;99.90
13205;DHT22;6667;52.634;9.226;2023-02-28T05:52:53;-4.30;99.90
13205;DHT22;6667;52.634;9.226;2023-02-28T05:55:19;-4.30;99.90
13205;DHT22;6667;52.634;9.226;2023-02-28T05:57:46;-4.30;99.90
13205;DHT22;6667;52.634;9.226;2023-02-28T06:00:13;-4.30;99.90
13205;DHT22;6667;52.634;9.226;2023-02-28T06:02:43;-4.40;99.90
13205;DHT22;6667;52.634;9.226;2023-02-28T06:05:13;-4.30;99.90
13205;DHT22;6667;52.634;9.226;2023-02-28T06:07:40;-4.30;99.90
13205;DHT22;6667;52.634;9.226;2023-02-28T06:10:08;-4.30;99.90
13205;DHT22;6667;52.634;9.226;2023-02-28T06:12:35;-4.40;99.90
13205;DHT22;6667;52.634;9.226;2023-02-28T06:15:01;-4.40;99.90
13205;DHT22;6667;52.634;9.226;2023-02-28T06:17:28;-4.50;99.90
13205;DHT22;6667;52.634;9.226;2023-02-28T06:19:55;-4.40;99.90
13205;DHT22;6667;52.634;9.226;2023-02-28T06:22:23;-4.40;99.90
13205;DHT22;6667;52.634;9.226;2023-02-28T06:24:49;-4.40;99.90
13205;DHT22;6667;52.634;9.226;2023-02-28T06:27:18;-4.40;99.90
13205;DHT22;6667;52.634;9.226;2023-02-28T06:29:45;-4.40;99.90
13205;DHT22;6667;52.634;9.226;2023-02-28T06:32:12;-4.50;99.90
13205;DHT22;6667;52.634;9.226;2023-02-28T06:34:39;-4.40;99.90
13205;DHT22;6667;52.634;9.226;2023-02-28T06:37:05;-4.30;99.90
13205;DHT22;6667;52.634;9.226;2023-02-28T06:39:33;-4.20;99.90
13205;DHT22;6667;52.634;9.226;2023-02-28T06:42:00;-4.10;99.90
13205;DHT22;6667;52.634;9.226;2023-02-28T06:44:27;-3.90;99.90
13205;DHT22;6667;52.634;9.226;2023-02-28T06:47:01;-3.80;99.90
13205;DHT22;6667;52.634;9.226;2023-02-28T06:49:28;-3.60;99.90
13205;DHT22;6667;52.634;9.226;2023-02-28T06:51:55;-3.50;99.90
13205;DHT22;6667;52.634;9.226;2023-02-28T06:54:22;-3.30;99.90
13205;DHT22;6667;52.634;9.226;2023-02-28T06:56:50;-3.20;99.90
13205;DHT22;6667;52.634;9.226;2023-02-28T06:59:17;-3.00;99.90
13205;DHT22;6667;52.634;9.226;2023-02-28T07:01:44;-2.80;99.90
13205;DHT22;6667;52.634;9.226;2023-02-28T07:04:10;-2.70;99.90
13205;DHT22;6667;52.634;9.226;2023-02-28T07:06:38;-2.50;99.90
13205;DHT22;6667;52.634;9.226;2023-02-28T07:09:05;-2.30;99.90
13205;DHT22;6667;52.634;9.226;2023-02-28T07:11:32;-2.10;99.90
13205;DHT22;6667;52.634;9.226;2023-02-28T07:14:00;-1.80;99.90
13205;DHT22;6667;52.634;9.226;2023-02-28T07:16:27;-1.60;99.90
13205;DHT22;6667;52.634;9.226;2023-02-28T07:18:54;-1.40;99.90
13205;DHT22;6667;52.634;9.226;2023-02-28T07:21:21;-1.10;99.90
13205;DHT22;6667;52.634;9.226;2023-02-28T07:23:47;-0.90;99.90
13205;DHT22;6667;52.634;9.226;2023-02-28T07:26:16;-0.60;99.90
13205;DHT22;6667;52.634;9.226;2023-02-28T07:28:45;-0.50;99.90
13205;DHT22;6667;52.634;9.226;2023-02-28T07:31:14;-0.20;99.90
13205;DHT22;6667;52.634;9.226;2023-02-28T07:33:41;0.10;99.90
13205;DHT22;6667;52.634;9.226;2023-02-28T07:36:09;0.30;99.90
13205;DHT22;6667;52.634;9.226;2023-02-28T07:38:39;0.60;99.90
13205;DHT22;6667;52.634;9.226;2023-02-28T07:41:06;0.80;99.90
13205;DHT22;6667;52.634;9.226;2023-02-28T07:43:33;1.00;99.90
13205;DHT22;6667;52.634;9.226;2023-02-28T07:46:02;1.40;99.90
13205;DHT22;6667;52.634;9.226;2023-02-28T07:48:30;1.60;99.90
13205;DHT22;6667;52.634;9.226;2023-02-28T07:50:57;1.80;99.90
13205;DHT22;6667;52.634;9.226;2023-02-28T07:53:24;2.10;99.90
13205;DHT22;6667;52.634;9.226;2023-02-28T07:55:52;2.40;99.90
13205;DHT22;6667;52.634;9.226;2023-02-28T07:58:20;2.70;99.90
13205;DHT22;6667;52.634;9.226;2023-02-28T08:00:47;2.90;99.90
13205;DHT22;6667;52.634;9.226;2023-02-28T08:03:14;3.20;99.90
13205;DHT22;6667;52.634;9.226;2023-02-28T08:05:42;3.50;99.90
13205;DHT22;6667;52.634;9.226;2023-02-28T08:08:08;3.70;99.90
13205;DHT22;6667;52.634;9.226;2023-02-28T08:10:35;4.10;99.90
13205;DHT22;6667;52.634;9.226;2023-02-28T08:13:02;4.40;99.90
13205;DHT22;6667;52.634;9.226;2023-02-28T08:15:29;4.60;99.90
13205;DHT22;6667;52.634;9.226;2023-02-28T08:17:56;4.70;99.90
13205;DHT22;6667;52.634;9.226;2023-02-28T08:20:23;5.00;99.90
13205;DHT22;6667;52.634;9.226;2023-02-28T08:22:51;5.20;99.90
13205;DHT22;6667;52.634;9.226;2023-02-28T08:25:18;5.30;99.90
13205;DHT22;6667;52.634;9.226;2023-02-28T08:27:45;5.30;99.90
13205;DHT22;6667;52.634;9.226;2023-02-28T08:30:13;5.40;99.90
13205;DHT22;6667;52.634;9.226;2023-02-28T08:32:40;5.60;99.90
13205;DHT22;6667;52.634;9.226;2023-02-28T08:35:08;5.90;99.90
13205;DHT22;6667;52.634;9.226;2023-02-28T08:37:35;6.00;99.90
13205;DHT22;6667;52.634;9.226;2023-02-28T08:40:05;6.10;99.90
13205;DHT22;6667;52.634;9.226;2023-02-28T08:42:32;6.00;99.90
13205;DHT22;6667;52.634;9.226;2023-02-28T08:44:59;6.30;99.90
13205;DHT22;6667;52.634;9.226;2023-02-28T08:47:25;6.60;99.90
13205;DHT22;6667;52.634;9.226;2023-02-28T08:49:52;6.60;99.90
13205;DHT22;6667;52.634;9.226;2023-02-28T08:52:19;6.90;99.90
13205;DHT22;6667;52.634;9.226;2023-02-28T08:54:46;7.60;99.90
13205;DHT22;6667;52.634;9.226;2023-02-28T08:57:14;7.90;99.90
13205;DHT22;6667;52.634;9.226;2023-02-28T08:59:40;8.00;99.90
13205;DHT22;6667;52.634;9.226;2023-02-28T09:02:08;8.20;99.90
13205;DHT22;6667;52.634;9.226;2023-02-28T09:04:35;8.80;99.90
13205;DHT22;6667;52.634;9.226;2023-02-28T09:07:02;8.90;99.90
13205;DHT22;6667;52.634;9.226;2023-02-28T09:09:29;9.10;99.90
13205;DHT22;6667;52.634;9.226;2023-02-28T09:11:56;9.00;99.90
13205;DHT22;6667;52.634;9.226;2023-02-28T09:14:24;9.00;99.90
13205;DHT22;6667;52.634;9.226;2023-02-28T09:16:50;9.00;99.90
13205;DHT22;6667;52.634;9.226;2023-02-28T09:19:17;9.20;99.90
13205;DHT22;6667;52.634;9.226;2023-02-28T09:21:44;9.40;99.90
13205;DHT22;6667;52.634;9.226;2023-02-28T09:24:10;9.90;99.90
13205;DHT22;6667;52.634;9.226;2023-02-28T09:26:39;10.20;99.90
13205;DHT22;6667;52.634;9.226;2023-02-28T09:29:06;10.30;99.90
13205;DHT22;6667;52.634;9.226;2023-02-28T09:31:34;10.40;99.90
13205;DHT22;6667;52.634;9.226;2023-02-28T09:34:01;10.20;99.90
13205;DHT22;6667;52.634;9.226;2023-02-28T09:36:28;10.50;99.90
13205;DHT22;6667;52.634;9.226;2023-02-28T09:38:55;10.80;99.90
13205;DHT22;6667;52.634;9.226;2023-02-28T09:41:23;10.40;99.90
13205;DHT22;6667;52.634;9.226;2023-02-28T09:43:55;10.10;99.90
13205;DHT22;6667;52.634;9.226;2023-02-28T09:46:30;10.40;99.90
13205;DHT22;6667;52.634;9.226;2023-02-28T09:49:02;10.90;99.90
13205;DHT22;6667;52.634;9.226;2023-02-28T09:51:43;10.50;99.90
13205;DHT22;6667;52.634;9.226;2023-02-28T09:54:14;10.90;99.90
13205;DHT22;6667;52.634;9.226;2023-02-28T09:56:45;10.80;99.90
13205;DHT22;6667;52.634;9.226;2023-02-28T09:59:17;10.80;99.90
13205;DHT22;6667;52.634;9.226;2023-02-28T10:01:53;10.70;99.90
13205;DHT22;6667;52.634;9.226;2023-02-28T10:04:41;11.30;99.90
13205;DHT22;6667;52.634;9.226;2023-02-28T10:07:19;10.80;99.90
13205;DHT22;6667;52.634;9.226;2023-02-28T10:09:51;10.30;99.90
13205;DHT22;6667;52.634;9.226;2023-02-28T10:12:20;10.80;99.90
13205;DHT22;6667;52.634;9.226;2023-02-28T10:14:50;11.10;99.90
13205;DHT22;6667;52.634;9.226;2023-02-28T10:17:20;11.50;99.90
13205;DHT22;6667;52.634;9.226;2023-02-28T10:19:57;11.10;99.90
13205;DHT22;6667;52.634;9.226;2023-02-28T10:22:29;11.40;99.90
13205;DHT22;6667;52.634;9.226;2023-02-28T10:25:00;10.50;99.90
13205;DHT22;6667;52.634;9.226;2023-02-28T10:27:30;10.50;99.90
13205;DHT22;6667;52.634;9.226;2023-02-28T10:29:58;9.70;99.90
13205;DHT22;6667;52.634;9.226;2023-02-28T10:32:27;10.30;99.90
13205;DHT22;6667;52.634;9.226;2023-02-28T10:34:58;10.50;99.90
13205;DHT22;6667;52.634;9.226;2023-02-28T10:37:25;10.50;99.90
13205;DHT22;6667;52.634;9.226;2023-02-28T10:39:52;10.30;99.90
13205;DHT22;6667;52.634;9.226;2023-02-28T10:42:24;9.50;99.90
13205;DHT22;6667;52.634;9.226;2023-02-28T10:45:11;9.60;99.90
13205;DHT22;6667;52.634;9.226;2023-02-28T10:47:48;9.50;99.90
13205;DHT22;6667;52.634;9.226;2023-02-28T10:50:52;8.50;99.90
13205;DHT22;6667;52.634;9.226;2023-02-28T10:53:31;9.10;99.90
13205;DHT22;6667;52.634;9.226;2023-02-28T10:56:00;8.70;99.90
13205;DHT22;6667;52.634;9.226;2023-02-28T10:58:29;8.40;99.90
13205;DHT22;6667;52.634;9.226;2023-02-28T11:00:57;9.10;99.90
13205;DHT22;6667;52.634;9.226;2023-02-28T11:03:29;8.90;99.90
13205;DHT22;6667;52.634;9.226;2023-02-28T11:06:03;9.80;99.90
13205;DHT22;6667;52.634;9.226;2023-02-28T11:08:31;9.50;99.90
13205;DHT22;6667;52.634;9.226;2023-02-28T11:11:00;9.30;99.90
13205;DHT22;6667;52.634;9.226;2023-02-28T11:13:31;8.70;99.90
13205;DHT22;6667;52.634;9.226;2023-02-28T11:16:00;8.60;99.90
13205;DHT22;6667;52.634;9.226;2023-02-28T11:18:30;8.90;99.90
13205;DHT22;6667;52.634;9.226;2023-02-28T11:21:02;10.10;99.90
13205;DHT22;6667;52.634;9.226;2023-02-28T11:23:31;9.60;99.90
13205;DHT22;6667;52.634;9.226;2023-02-28T11:26:01;9.90;99.90
13205;DHT22;6667;52.634;9.226;2023-02-28T11:28:32;9.60;99.90
13205;DHT22;6667;52.634;9.226;2023-02-28T11:33:48;10.60;99.90
13205;DHT22;6667;52.634;9.226;2023-02-28T11:36:19;10.70;99.90
13205;DHT22;6667;52.634;9.226;2023-02-28T11:38:47;10.40;99.90
13205;DHT22;6667;52.634;9.226;2023-02-28T11:41:34;10.70;99.90
13205;DHT22;6667;52.634;9.226;2023-02-28T11:44:28;10.70;99.90
13205;DHT22;6667;52.634;9.226;2023-02-28T11:47:00;11.00;99.90
13205;DHT22;6667;52.634;9.226;2023-02-28T11:49:37;11.10;99.90
13205;DHT22;6667;52.634;9.226;2023-02-28T11:52:19;10.30;99.90
13205;DHT22;6667;52.634;9.226;2023-02-28T11:54:58;9.80;99.90
13205;DHT22;6667;52.634;9.226;2023-02-28T11:57:35;9.50;99.90
13205;DHT22;6667;52.634;9.226;2023-02-28T12:00:13;9.10;99.90
13205;DHT22;6667;52.634;9.226;2023-02-28T12:02:54;8.80;99.90
13205;DHT22;6667;52.634;9.226;2023-02-28T12:05:30;9.90;99.90
13205;DHT22;6667;52.634;9.226;2023-02-28T12:08:07;10.60;99.90
13205;DHT22;6667;52.634;9.226;2023-02-28T12:10:57;9.80;99.90
13205;DHT22;6667;52.634;9.226;2023-02-28T12:13:32;10.20;99.90
13205;DHT22;6667;52.634;9.226;2023-02-28T12:16:24;9.80;99.90
13205;DHT22;6667;52.634;9.226;2023-02-28T12:19:04;9.90;99.90
13205;DHT22;6667;52.634;9.226;2023-02-28T12:21:45;8.60;99.90
13205;DHT22;6667;52.634;9.226;2023-02-28T12:24:39;8.70;99.90
13205;DHT22;6667;52.634;9.226;2023-02-28T12:27:13;9.20;99.90
13205;DHT22;6667;52.634;9.226;2023-02-28T12:29:47;9.20;99.90
13205;DHT22;6667;52.634;9.226;2023-02-28T12:32:18;9.80;99.90
13205;DHT22;6667;52.634;9.226;2023-02-28T12:34:50;9.10;99.90
13205;DHT22;6667;52.634;9.226;2023-02-28T12:37:23;9.10;99.90
13205;DHT22;6667;52.634;9.226;2023-02-28T12:39:55;8.90;99.90
13205;DHT22;6667;52.634;9.226;2023-02-28T12:42:28;9.40;99.90
13205;DHT22;6667;52.634;9.226;2023-02-28T12:44:59;9.70;99.90
13205;DHT22;6667;52.634;9.226;2023-02-28T12:47:27;9.40;99.90
13205;DHT22;6667;52.634;9.226;2023-02-28T12:49:56;9.50;99.90
13205;DHT22;6667;52.634;9.226;2023-02-28T12:52:30;10.40;99.90
13205;DHT22;6667;52.634;9.226;2023-02-28T12:55:05;9.70;99.90
13205;DHT22;6667;52.634;9.226;2023-02-28T12:57:40;9.60;99.90
13205;DHT22;6667;52.634;9.226;2023-02-28T13:00:12;10.30;99.90
13205;DHT22;6667;52.634;9.226;2023-02-28T13:02:58;10.20;99.90
13205;DHT22;6667;52.634;9.226;2023-02-28T13:05:50;9.90;99.90
13205;DHT22;6667;52.634;9.226;2023-02-28T13:08:32;9.70;99.90
13205;DHT22;6667;52.634;9.226;2023-02-28T13:11:07;9.40;99.90
13205;DHT22;6667;52.634;9.226;2023-02-28T13:13:34;9.20;99.90
13205;DHT22;6667;52.634;9.226;2023-02-28T13:16:04;9.60;99.90
13205;DHT22;6667;52.634;9.226;2023-02-28T13:18:33;8.70;99.90
13205;DHT22;6667;52.634;9.226;2023-02-28T13:21:03;9.10;99.90
13205;DHT22;6667;52.634;9.226;2023-02-28T13:24:01;9.60;99.90
13205;DHT22;6667;52.634;9.226;2023-02-28T13:29:31;10.20;99.90
13205;DHT22;6667;52.634;9.226;2023-02-28T13:35:42;9.60;99.90
13205;DHT22;6667;52.634;9.226;2023-02-28T13:38:22;10.00;99.90
13205;DHT22;6667;52.634;9.226;2023-02-28T13:40:49;9.90;99.90
13205;DHT22;6667;52.634;9.226;2023-02-28T13:43:17;10.20;99.90
13205;DHT22;6667;52.634;9.226;2023-02-28T13:46:08;10.10;99.90
13205;DHT22;6667;52.634;9.226;2023-02-28T13:48:36;10.30;99.90
13205;DHT22;6667;52.634;9.226;2023-02-28T13:51:40;10.30;99.90
13205;DHT22;6667;52.634;9.226;2023-02-28T13:54:19;10.40;99.90
13205;DHT22;6667;52.634;9.226;2023-02-28T13:56:53;10.10;99.90
13205;DHT22;6667;52.634;9.226;2023-02-28T13:59:28;10.30;99.90
13205;DHT22;6667;52.634;9.226;2023-02-28T14:02:15;9.60;99.90
13205;DHT22;6667;52.634;9.226;2023-02-28T14:05:00;9.40;99.90
13205;DHT22;6667;52.634;9.226;2023-02-28T14:07:29;9.40;99.90
13205;DHT22;6667;52.634;9.226;2023-02-28T14:10:00;9.90;99.90
13205;DHT22;6667;52.634;9.226;2023-02-28T14:12:56;9.80;99.90
13205;DHT22;6667;52.634;9.226;2023-02-28T14:15:38;9.60;99.90
13205;DHT22;6667;52.634;9.226;2023-02-28T14:18:16;9.70;99.90
13205;DHT22;6667;52.634;9.226;2023-02-28T14:20:44;9.50;99.90
13205;DHT22;6667;52.634;9.226;2023-02-28T14:23:18;9.40;99.90
13205;DHT22;6667;52.634;9.226;2023-02-28T14:25:55;9.50;99.90
13205;DHT22;6667;52.634;9.226;2023-02-28T14:28:47;9.30;99.90
13205;DHT22;6667;52.634;9.226;2023-02-28T14:31:22;8.90;99.90
13205;DHT22;6667;52.634;9.226;2023-02-28T14:34:04;8.70;99.90
13205;DHT22;6667;52.634;9.226;2023-02-28T14:36:37;8.70;99.90
13205;DHT22;6667;52.634;9.226;2023-02-28T14:39:07;8.50;99.90
13205;DHT22;6667;52.634;9.226;2023-02-28T14:41:35;8.20;99.90
13205;DHT22;6667;52.634;9.226;2023-02-28T14:44:15;8.20;99.90
13205;DHT22;6667;52.634;9.226;2023-02-28T14:46:42;8.00;99.90
13205;DHT22;6667;52.634;9.226;2023-02-28T14:49:16;7.80;99.90
13205;DHT22;6667;52.634;9.226;2023-02-28T14:51:44;8.10;99.90
13205;DHT22;6667;52.634;9.226;2023-02-28T14:54:15;8.30;99.90
13205;DHT22;6667;52.634;9.226;2023-02-28T14:56:42;8.20;99.90
13205;DHT22;6667;52.634;9.226;2023-02-28T14:59:24;8.40;99.90
13205;DHT22;6667;52.634;9.226;2023-02-28T15:01:51;8.50;99.90
13205;DHT22;6667;52.634;9.226;2023-02-28T15:04:25;8.20;99.90
13205;DHT22;6667;52.634;9.226;2023-02-28T15:07:07;8.10;99.90
13205;DHT22;6667;52.634;9.226;2023-02-28T15:09:34;7.60;99.90
13205;DHT22;6667;52.634;9.226;2023-02-28T15:12:01;7.60;99.90
13205;DHT22;6667;52.634;9.226;2023-02-28T15:14:28;7.40;99.90
13205;DHT22;6667;52.634;9.226;2023-02-28T15:16:59;7.50;99.90
13205;DHT22;6667;52.634;9.226;2023-02-28T15:19:31;7.60;99.90
13205;DHT22;6667;52.634;9.226;2023-02-28T15:22:01;7.70;99.90
13205;DHT22;6667;52.634;9.226;2023-02-28T15:24:36;7.70;99.90
13205;DHT22;6667;52.634;9.226;2023-02-28T15:27:05;7.40;99.90
13205;DHT22;6667;52.634;9.226;2023-02-28T15:29:41;7.20;99.90
13205;DHT22;6667;52.634;9.226;2023-02-28T15:32:23;7.40;99.90
13205;DHT22;6667;52.634;9.226;2023-02-28T15:34:52;7.30;99.90
13205;DHT22;6667;52.634;9.226;2023-02-28T15:37:27;7.30;99.90
13205;DHT22;6667;52.634;9.226;2023-02-28T15:39:57;7.40;99.90
13205;DHT22;6667;52.634;9.226;2023-02-28T15:42:28;7.30;99.90
13205;DHT22;6667;52.634;9.226;2023-02-28T15:44:57;7.30;99.90
13205;DHT22;6667;52.634;9.226;2023-02-28T15:47:27;7.40;99.90
13205;DHT22;6667;52.634;9.226;2023-02-28T15:49:57;7.30;99.90
13205;DHT22;6667;52.634;9.226;2023-02-28T15:52:28;7.10;99.90
13205;DHT22;6667;52.634;9.226;2023-02-28T15:54:57;6.90;99.90
13205;DHT22;6667;52.634;9.226;2023-02-28T15:57:26;6.90;99.90
13205;DHT22;6667;52.634;9.226;2023-02-28T15:59:56;7.00;99.90
13205;DHT22;6667;52.634;9.226;2023-02-28T16:02:31;7.00;99.90
13205;DHT22;6667;52.634;9.226;2023-02-28T16:05:19;7.00;99.90
13205;DHT22;6667;52.634;9.226;2023-02-28T16:07:50;6.90;99.90
13205;DHT22;6667;52.634;9.226;2023-02-28T16:10:17;6.80;99.90
13205;DHT22;6667;52.634;9.226;2023-02-28T16:12:44;6.90;99.90
13205;DHT22;6667;52.634;9.226;2023-02-28T16:15:18;6.60;99.90
13205;DHT22;6667;52.634;9.226;2023-02-28T16:17:46;6.50;99.90
13205;DHT22;6667;52.634;9.226;2023-02-28T16:20:16;6.40;99.90
13205;DHT22;6667;52.634;9.226;2023-02-28T16:22:43;6.50;99.90
13205;DHT22;6667;52.634;9.226;2023-02-28T16:25:12;6.50;99.90
13205;DHT22;6667;52.634;9.226;2023-02-28T16:27:39;6.40;99.90
13205;DHT22;6667;52.634;9.226;2023-02-28T16:30:09;6.40;99.90
13205;DHT22;6667;52.634;9.226;2023-02-28T16:32:40;6.20;99.90
13205;DHT22;6667;52.634;9.226;2023-02-28T16:35:09;6.20;99.90
13205;DHT22;6667;52.634;9.226;2023-02-28T16:37:37;6.10;99.90